Terminal Aerodrome Forecast
Issued by NWS

Current Version | Previous Version | Text Only | Print | Product List | Glossary Off
Versions: 1 2 3 4 5 6 7 8 9 10 11 12 13 14 15 16 17 18 19 20 21 22 23 24 25 26 27 28 29

000
FTUS41 KILN 242300 RRA
TAFLUK
TAF
KLUK 242342Z 2500/2524 17011G16KT P6SM SCT250
     FM250200 16008KT P6SM SCT100 BKN200
     FM250900 18010KT P6SM BKN080
     FM251300 22013G22KT P6SM SCT050 BKN080
     FM251800 22015G24KT P6SM VCSH BKN050=

USA.gov is the U.S. government's official web portal to all federal, state and local government web resources and services.